sensor_id;sensor_type;location;lat;lon;timestamp;temperature;humidity
15700;DHT22;7950;42.744;23.174;2023-06-26T00:00:12;19.40;99.90
15700;DHT22;7950;42.744;23.174;2023-06-26T00:02:41;19.30;99.90
15700;DHT22;7950;42.744;23.174;2023-06-26T00:05:09;19.30;99.90
15700;DHT22;7950;42.744;23.174;2023-06-26T00:07:38;19.30;99.90
15700;DHT22;7950;42.744;23.174;2023-06-26T00:10:07;19.30;99.90
15700;DHT22;7950;42.744;23.174;2023-06-26T00:12:36;19.30;99.90
15700;DHT22;7950;42.744;23.174;2023-06-26T00:15:07;19.40;99.90
15700;DHT22;7950;42.744;23.174;2023-06-26T00:17:36;19.40;99.90
15700;DHT22;7950;42.744;23.174;2023-06-26T00:20:06;19.40;99.90
15700;DHT22;7950;42.744;23.174;2023-06-26T00:22:36;19.30;99.90
15700;DHT22;7950;42.744;23.174;2023-06-26T00:25:08;19.30;99.90
15700;DHT22;7950;42.744;23.174;2023-06-26T00:27:37;19.30;99.90
15700;DHT22;7950;42.744;23.174;2023-06-26T00:30:08;19.30;99.90
15700;DHT22;7950;42.744;23.174;2023-06-26T00:32:37;19.30;99.90
15700;DHT22;7950;42.744;23.174;2023-06-26T00:35:06;19.30;99.90
15700;DHT22;7950;42.744;23.174;2023-06-26T00:37:35;19.30;99.90
15700;DHT22;7950;42.744;23.174;2023-06-26T00:40:04;19.30;99.90
15700;DHT22;7950;42.744;23.174;2023-06-26T00:42:33;19.30;99.90
15700;DHT22;7950;42.744;23.174;2023-06-26T00:45:02;19.30;99.90
15700;DHT22;7950;42.744;23.174;2023-06-26T00:47:32;19.30;99.90
15700;DHT22;7950;42.744;23.174;2023-06-26T00:50:01;19.30;99.90
15700;DHT22;7950;42.744;23.174;2023-06-26T00:52:31;19.30;99.90
15700;DHT22;7950;42.744;23.174;2023-06-26T00:54:59;19.30;99.90
15700;DHT22;7950;42.744;23.174;2023-06-26T00:57:29;19.30;99.90
15700;DHT22;7950;42.744;23.174;2023-06-26T00:59:58;19.30;99.90
15700;DHT22;7950;42.744;23.174;2023-06-26T01:02:27;19.30;99.90
15700;DHT22;7950;42.744;23.174;2023-06-26T01:05:02;19.30;99.90
15700;DHT22;7950;42.744;23.174;2023-06-26T01:07:34;19.30;99.90
15700;DHT22;7950;42.744;23.174;2023-06-26T01:10:05;19.30;99.90
15700;DHT22;7950;42.744;23.174;2023-06-26T01:12:36;19.30;99.90
15700;DHT22;7950;42.744;23.174;2023-06-26T01:15:06;19.30;99.90
15700;DHT22;7950;42.744;23.174;2023-06-26T01:17:37;19.30;99.90
15700;DHT22;7950;42.744;23.174;2023-06-26T01:20:09;19.30;99.90
15700;DHT22;7950;42.744;23.174;2023-06-26T01:22:43;19.30;99.90
15700;DHT22;7950;42.744;23.174;2023-06-26T01:25:21;19.30;99.90
15700;DHT22;7950;42.744;23.174;2023-06-26T01:27:59;19.30;99.90
15700;DHT22;7950;42.744;23.174;2023-06-26T01:30:28;19.20;99.90
15700;DHT22;7950;42.744;23.174;2023-06-26T01:32:58;19.20;99.90
15700;DHT22;7950;42.744;23.174;2023-06-26T01:35:28;19.10;99.90
15700;DHT22;7950;42.744;23.174;2023-06-26T01:38:11;19.00;99.90
15700;DHT22;7950;42.744;23.174;2023-06-26T01:40:41;19.00;99.90
15700;DHT22;7950;42.744;23.174;2023-06-26T01:43:16;19.00;99.90
15700;DHT22;7950;42.744;23.174;2023-06-26T01:45:50;18.90;99.90
15700;DHT22;7950;42.744;23.174;2023-06-26T01:48:24;18.90;99.90
15700;DHT22;7950;42.744;23.174;2023-06-26T01:50:58;18.80;99.90
15700;DHT22;7950;42.744;23.174;2023-06-26T01:53:34;18.80;99.90
15700;DHT22;7950;42.744;23.174;2023-06-26T01:56:11;18.80;99.90
15700;DHT22;7950;42.744;23.174;2023-06-26T01:58:45;18.80;99.90
15700;DHT22;7950;42.744;23.174;2023-06-26T02:01:15;18.80;99.90
15700;DHT22;7950;42.744;23.174;2023-06-26T02:03:44;18.70;99.90
15700;DHT22;7950;42.744;23.174;2023-06-26T02:06:13;18.70;99.90
15700;DHT22;7950;42.744;23.174;2023-06-26T02:08:42;18.70;99.90
15700;DHT22;7950;42.744;23.174;2023-06-26T02:11:10;18.60;99.90
15700;DHT22;7950;42.744;23.174;2023-06-26T02:13:39;18.60;99.90
15700;DHT22;7950;42.744;23.174;2023-06-26T02:16:09;18.60;99.90
15700;DHT22;7950;42.744;23.174;2023-06-26T02:18:37;18.50;99.90
15700;DHT22;7950;42.744;23.174;2023-06-26T02:21:06;18.50;99.90
15700;DHT22;7950;42.744;23.174;2023-06-26T02:23:35;18.50;99.90
15700;DHT22;7950;42.744;23.174;2023-06-26T02:26:04;18.50;99.90
15700;DHT22;7950;42.744;23.174;2023-06-26T02:28:32;18.50;99.90
15700;DHT22;7950;42.744;23.174;2023-06-26T02:31:01;18.50;99.90
15700;DHT22;7950;42.744;23.174;2023-06-26T02:33:31;18.50;99.90
15700;DHT22;7950;42.744;23.174;2023-06-26T02:36:00;18.40;99.90
15700;DHT22;7950;42.744;23.174;2023-06-26T02:38:29;18.40;99.90
15700;DHT22;7950;42.744;23.174;2023-06-26T02:40:57;18.40;99.90
15700;DHT22;7950;42.744;23.174;2023-06-26T02:43:26;18.40;99.90
15700;DHT22;7950;42.744;23.174;2023-06-26T02:45:54;18.40;99.90
15700;DHT22;7950;42.744;23.174;2023-06-26T02:48:23;18.40;99.90
15700;DHT22;7950;42.744;23.174;2023-06-26T02:50:53;18.40;99.90
15700;DHT22;7950;42.744;23.174;2023-06-26T02:53:21;18.40;99.90
15700;DHT22;7950;42.744;23.174;2023-06-26T02:55:50;18.30;99.90
15700;DHT22;7950;42.744;23.174;2023-06-26T02:58:19;18.30;99.90
15700;DHT22;7950;42.744;23.174;2023-06-26T03:00:47;18.30;99.90
15700;DHT22;7950;42.744;23.174;2023-06-26T03:03:16;18.30;99.90
15700;DHT22;7950;42.744;23.174;2023-06-26T03:05:45;18.40;99.90
15700;DHT22;7950;42.744;23.174;2023-06-26T03:08:15;18.30;99.90
15700;DHT22;7950;42.744;23.174;2023-06-26T03:10:43;18.30;99.90
15700;DHT22;7950;42.744;23.174;2023-06-26T03:13:12;18.30;99.90
15700;DHT22;7950;42.744;23.174;2023-06-26T03:15:40;18.30;99.90
15700;DHT22;7950;42.744;23.174;2023-06-26T03:18:09;18.30;99.90
15700;DHT22;7950;42.744;23.174;2023-06-26T03:20:37;18.40;99.90
15700;DHT22;7950;42.744;23.174;2023-06-26T03:23:06;18.30;99.90
15700;DHT22;7950;42.744;23.174;2023-06-26T03:25:36;18.40;99.90
15700;DHT22;7950;42.744;23.174;2023-06-26T03:28:05;18.30;99.90
15700;DHT22;7950;42.744;23.174;2023-06-26T03:30:33;18.30;99.90
15700;DHT22;7950;42.744;23.174;2023-06-26T03:33:02;18.30;99.90
15700;DHT22;7950;42.744;23.174;2023-06-26T03:35:31;18.30;99.90
15700;DHT22;7950;42.744;23.174;2023-06-26T03:38:01;18.30;99.90
15700;DHT22;7950;42.744;23.174;2023-06-26T03:40:29;18.30;99.90
15700;DHT22;7950;42.744;23.174;2023-06-26T03:42:59;18.40;99.90
15700;DHT22;7950;42.744;23.174;2023-06-26T03:45:28;18.40;99.90
15700;DHT22;7950;42.744;23.174;2023-06-26T03:47:56;18.40;99.90
15700;DHT22;7950;42.744;23.174;2023-06-26T03:50:25;18.50;99.90
15700;DHT22;7950;42.744;23.174;2023-06-26T03:52:54;18.60;99.90
15700;DHT22;7950;42.744;23.174;2023-06-26T03:55:22;18.60;99.90
15700;DHT22;7950;42.744;23.174;2023-06-26T03:57:51;18.60;99.90
15700;DHT22;7950;42.744;23.174;2023-06-26T04:00:21;18.60;99.90
15700;DHT22;7950;42.744;23.174;2023-06-26T04:02:50;18.60;99.90
15700;DHT22;7950;42.744;23.174;2023-06-26T04:05:19;18.60;99.90
15700;DHT22;7950;42.744;23.174;2023-06-26T04:07:51;18.70;99.90
15700;DHT22;7950;42.744;23.174;2023-06-26T04:10:20;18.80;99.90
15700;DHT22;7950;42.744;23.174;2023-06-26T04:12:48;18.90;99.90
15700;DHT22;7950;42.744;23.174;2023-06-26T04:15:17;19.00;99.90
15700;DHT22;7950;42.744;23.174;2023-06-26T04:17:47;19.20;99.90
15700;DHT22;7950;42.744;23.174;2023-06-26T04:20:15;19.30;99.90
15700;DHT22;7950;42.744;23.174;2023-06-26T04:22:44;19.30;99.90
15700;DHT22;7950;42.744;23.174;2023-06-26T04:25:13;19.30;99.90
15700;DHT22;7950;42.744;23.174;2023-06-26T04:27:41;19.40;99.90
15700;DHT22;7950;42.744;23.174;2023-06-26T04:30:11;19.50;99.90
15700;DHT22;7950;42.744;23.174;2023-06-26T04:32:40;19.50;99.90
15700;DHT22;7950;42.744;23.174;2023-06-26T04:35:10;19.50;99.90
15700;DHT22;7950;42.744;23.174;2023-06-26T04:37:39;19.60;99.90
15700;DHT22;7950;42.744;23.174;2023-06-26T04:40:08;19.80;99.90
15700;DHT22;7950;42.744;23.174;2023-06-26T04:42:38;19.90;99.90
15700;DHT22;7950;42.744;23.174;2023-06-26T04:45:07;20.00;99.90
15700;DHT22;7950;42.744;23.174;2023-06-26T04:47:36;20.20;99.90
15700;DHT22;7950;42.744;23.174;2023-06-26T04:50:05;20.20;99.90
15700;DHT22;7950;42.744;23.174;2023-06-26T04:52:37;20.30;99.90
15700;DHT22;7950;42.744;23.174;2023-06-26T04:55:06;20.50;99.90
15700;DHT22;7950;42.744;23.174;2023-06-26T04:57:35;20.50;99.90
15700;DHT22;7950;42.744;23.174;2023-06-26T05:00:04;20.60;99.90
15700;DHT22;7950;42.744;23.174;2023-06-26T05:02:37;20.60;99.90
15700;DHT22;7950;42.744;23.174;2023-06-26T05:05:06;20.60;99.90
15700;DHT22;7950;42.744;23.174;2023-06-26T05:07:37;20.70;99.90
15700;DHT22;7950;42.744;23.174;2023-06-26T05:10:06;20.60;99.90
15700;DHT22;7950;42.744;23.174;2023-06-26T05:12:35;20.60;99.90
15700;DHT22;7950;42.744;23.174;2023-06-26T05:15:05;20.60;99.90
15700;DHT22;7950;42.744;23.174;2023-06-26T05:17:34;20.70;99.90
15700;DHT22;7950;42.744;23.174;2023-06-26T05:20:02;20.90;99.90
15700;DHT22;7950;42.744;23.174;2023-06-26T05:22:32;21.00;99.90
15700;DHT22;7950;42.744;23.174;2023-06-26T05:25:05;21.10;99.90
15700;DHT22;7950;42.744;23.174;2023-06-26T05:27:37;21.10;99.90
15700;DHT22;7950;42.744;23.174;2023-06-26T05:30:07;21.20;99.90
15700;DHT22;7950;42.744;23.174;2023-06-26T05:32:38;21.40;99.90
15700;DHT22;7950;42.744;23.174;2023-06-26T05:35:09;21.50;99.90
15700;DHT22;7950;42.744;23.174;2023-06-26T05:37:38;21.60;99.90
15700;DHT22;7950;42.744;23.174;2023-06-26T05:40:11;21.80;99.90
15700;DHT22;7950;42.744;23.174;2023-06-26T05:42:41;21.80;99.90
15700;DHT22;7950;42.744;23.174;2023-06-26T05:45:10;21.90;99.90
15700;DHT22;7950;42.744;23.174;2023-06-26T05:47:39;21.80;99.90
15700;DHT22;7950;42.744;23.174;2023-06-26T05:50:09;21.60;99.90
15700;DHT22;7950;42.744;23.174;2023-06-26T05:52:39;21.50;99.90
15700;DHT22;7950;42.744;23.174;2023-06-26T05:55:11;21.50;99.90
15700;DHT22;7950;42.744;23.174;2023-06-26T05:57:41;21.50;99.90
15700;DHT22;7950;42.744;23.174;2023-06-26T06:00:12;21.60;99.90
15700;DHT22;7950;42.744;23.174;2023-06-26T06:02:42;21.70;99.90
15700;DHT22;7950;42.744;23.174;2023-06-26T06:05:11;21.80;99.90
15700;DHT22;7950;42.744;23.174;2023-06-26T06:07:40;22.00;99.90
15700;DHT22;7950;42.744;23.174;2023-06-26T06:10:10;22.10;99.90
15700;DHT22;7950;42.744;23.174;2023-06-26T06:12:39;22.10;99.90
15700;DHT22;7950;42.744;23.174;2023-06-26T06:15:08;22.30;99.90
15700;DHT22;7950;42.744;23.174;2023-06-26T06:17:36;22.40;99.90
15700;DHT22;7950;42.744;23.174;2023-06-26T06:20:05;22.50;99.90
15700;DHT22;7950;42.744;23.174;2023-06-26T06:22:34;22.60;99.90
15700;DHT22;7950;42.744;23.174;2023-06-26T06:25:03;22.70;99.90
15700;DHT22;7950;42.744;23.174;2023-06-26T06:27:33;22.70;99.90
15700;DHT22;7950;42.744;23.174;2023-06-26T06:30:02;22.80;99.90
15700;DHT22;7950;42.744;23.174;2023-06-26T06:32:34;22.90;99.90
15700;DHT22;7950;42.744;23.174;2023-06-26T06:35:03;23.00;99.90
15700;DHT22;7950;42.744;23.174;2023-06-26T06:37:37;23.00;99.90
15700;DHT22;7950;42.744;23.174;2023-06-26T06:40:06;23.00;99.90
15700;DHT22;7950;42.744;23.174;2023-06-26T06:42:38;23.10;99.90
15700;DHT22;7950;42.744;23.174;2023-06-26T06:45:07;23.00;99.90
15700;DHT22;7950;42.744;23.174;2023-06-26T06:47:37;23.00;99.90
15700;DHT22;7950;42.744;23.174;2023-06-26T06:50:06;23.10;99.90
15700;DHT22;7950;42.744;23.174;2023-06-26T06:52:38;23.20;99.90
15700;DHT22;7950;42.744;23.174;2023-06-26T06:55:08;23.30;99.90
15700;DHT22;7950;42.744;23.174;2023-06-26T06:57:39;23.40;99.90
15700;DHT22;7950;42.744;23.174;2023-06-26T07:00:09;23.70;99.90
15700;DHT22;7950;42.744;23.174;2023-06-26T07:02:42;23.90;99.90
15700;DHT22;7950;42.744;23.174;2023-06-26T07:05:12;24.10;99.90
15700;DHT22;7950;42.744;23.174;2023-06-26T07:07:41;24.20;99.90
15700;DHT22;7950;42.744;23.174;2023-06-26T07:10:11;24.00;99.90
15700;DHT22;7950;42.744;23.174;2023-06-26T07:12:42;24.00;99.90
15700;DHT22;7950;42.744;23.174;2023-06-26T07:15:12;24.20;99.90
15700;DHT22;7950;42.744;23.174;2023-06-26T07:17:40;24.40;99.90
15700;DHT22;7950;42.744;23.174;2023-06-26T07:20:09;24.40;99.90
15700;DHT22;7950;42.744;23.174;2023-06-26T07:22:42;24.30;99.90
15700;DHT22;7950;42.744;23.174;2023-06-26T07:25:13;24.40;99.90
15700;DHT22;7950;42.744;23.174;2023-06-26T07:27:43;24.40;99.90
15700;DHT22;7950;42.744;23.174;2023-06-26T07:30:12;24.60;99.90
15700;DHT22;7950;42.744;23.174;2023-06-26T07:32:41;24.60;99.90
15700;DHT22;7950;42.744;23.174;2023-06-26T07:35:09;24.70;99.90
15700;DHT22;7950;42.744;23.174;2023-06-26T07:37:38;24.70;99.90
15700;DHT22;7950;42.744;23.174;2023-06-26T07:40:09;24.50;99.90
15700;DHT22;7950;42.744;23.174;2023-06-26T07:42:38;24.30;99.90
15700;DHT22;7950;42.744;23.174;2023-06-26T07:45:09;24.20;99.90
15700;DHT22;7950;42.744;23.174;2023-06-26T07:47:39;24.30;99.90
15700;DHT22;7950;42.744;23.174;2023-06-26T07:50:08;24.40;99.90
15700;DHT22;7950;42.744;23.174;2023-06-26T07:52:37;24.30;99.90
15700;DHT22;7950;42.744;23.174;2023-06-26T07:55:06;24.20;99.90
15700;DHT22;7950;42.744;23.174;2023-06-26T07:57:35;24.10;99.90
15700;DHT22;7950;42.744;23.174;2023-06-26T08:00:04;24.00;99.90
15700;DHT22;7950;42.744;23.174;2023-06-26T08:02:35;23.90;99.90
15700;DHT22;7950;42.744;23.174;2023-06-26T08:05:05;24.00;99.90
15700;DHT22;7950;42.744;23.174;2023-06-26T08:07:34;24.30;99.90
15700;DHT22;7950;42.744;23.174;2023-06-26T08:10:03;24.40;99.90
15700;DHT22;7950;42.744;23.174;2023-06-26T08:12:31;24.50;99.90
15700;DHT22;7950;42.744;23.174;2023-06-26T08:15:00;24.70;99.90
15700;DHT22;7950;42.744;23.174;2023-06-26T08:17:30;24.80;99.90
15700;DHT22;7950;42.744;23.174;2023-06-26T08:20:00;24.90;99.90
15700;DHT22;7950;42.744;23.174;2023-06-26T08:22:28;25.10;99.90
15700;DHT22;7950;42.744;23.174;2023-06-26T08:24:57;25.20;99.90
15700;DHT22;7950;42.744;23.174;2023-06-26T08:27:25;25.50;99.90
15700;DHT22;7950;42.744;23.174;2023-06-26T08:29:54;25.60;99.90
15700;DHT22;7950;42.744;23.174;2023-06-26T08:32:22;25.60;99.90
15700;DHT22;7950;42.744;23.174;2023-06-26T08:34:52;25.60;99.90
15700;DHT22;7950;42.744;23.174;2023-06-26T08:37:22;25.50;99.90
15700;DHT22;7950;42.744;23.174;2023-06-26T08:39:50;25.50;99.90
15700;DHT22;7950;42.744;23.174;2023-06-26T08:42:19;25.60;99.90
15700;DHT22;7950;42.744;23.174;2023-06-26T08:44:47;25.80;99.90
15700;DHT22;7950;42.744;23.174;2023-06-26T08:47:28;26.00;99.90
15700;DHT22;7950;42.744;23.174;2023-06-26T08:50:04;26.00;99.90
15700;DHT22;7950;42.744;23.174;2023-06-26T08:52:49;25.70;99.90
15700;DHT22;7950;42.744;23.174;2023-06-26T08:55:23;25.50;99.90
15700;DHT22;7950;42.744;23.174;2023-06-26T08:57:55;25.60;99.90
15700;DHT22;7950;42.744;23.174;2023-06-26T09:00:24;25.60;99.90
15700;DHT22;7950;42.744;23.174;2023-06-26T09:02:53;25.50;99.90
15700;DHT22;7950;42.744;23.174;2023-06-26T09:05:22;25.50;99.90
15700;DHT22;7950;42.744;23.174;2023-06-26T09:07:52;25.60;99.90
15700;DHT22;7950;42.744;23.174;2023-06-26T09:10:25;25.40;99.90
15700;DHT22;7950;42.744;23.174;2023-06-26T09:12:55;25.30;99.90
15700;DHT22;7950;42.744;23.174;2023-06-26T09:15:25;25.20;99.90
15700;DHT22;7950;42.744;23.174;2023-06-26T09:17:56;25.20;99.90
15700;DHT22;7950;42.744;23.174;2023-06-26T09:20:27;25.30;99.90
15700;DHT22;7950;42.744;23.174;2023-06-26T09:22:59;25.50;99.90
15700;DHT22;7950;42.744;23.174;2023-06-26T09:25:28;25.70;99.90
15700;DHT22;7950;42.744;23.174;2023-06-26T09:27:57;25.80;99.90
15700;DHT22;7950;42.744;23.174;2023-06-26T09:30:27;25.80;99.90
15700;DHT22;7950;42.744;23.174;2023-06-26T09:32:55;25.90;99.90
15700;DHT22;7950;42.744;23.174;2023-06-26T09:35:27;25.80;99.90
15700;DHT22;7950;42.744;23.174;2023-06-26T09:37:56;25.80;99.90
15700;DHT22;7950;42.744;23.174;2023-06-26T09:40:26;25.80;99.90
15700;DHT22;7950;42.744;23.174;2023-06-26T09:43:02;25.90;99.30
15700;DHT22;7950;42.744;23.174;2023-06-26T09:45:32;25.80;99.30
15700;DHT22;7950;42.744;23.174;2023-06-26T09:48:01;25.90;99.90
15700;DHT22;7950;42.744;23.174;2023-06-26T09:50:32;25.90;99.90
15700;DHT22;7950;42.744;23.174;2023-06-26T09:53:07;25.90;99.90
15700;DHT22;7950;42.744;23.174;2023-06-26T09:55:39;25.80;99.90
15700;DHT22;7950;42.744;23.174;2023-06-26T09:58:11;25.60;99.90
15700;DHT22;7950;42.744;23.174;2023-06-26T10:00:42;25.50;99.90
15700;DHT22;7950;42.744;23.174;2023-06-26T10:03:10;25.30;99.90
15700;DHT22;7950;42.744;23.174;2023-06-26T10:05:40;25.30;99.90
15700;DHT22;7950;42.744;23.174;2023-06-26T10:08:10;25.10;99.40
15700;DHT22;7950;42.744;23.174;2023-06-26T10:10:42;25.10;99.90
15700;DHT22;7950;42.744;23.174;2023-06-26T10:13:17;25.30;99.90
15700;DHT22;7950;42.744;23.174;2023-06-26T10:15:50;25.50;99.90
15700;DHT22;7950;42.744;23.174;2023-06-26T10:18:21;25.60;98.90
15700;DHT22;7950;42.744;23.174;2023-06-26T10:20:55;25.50;97.00
15700;DHT22;7950;42.744;23.174;2023-06-26T10:23:26;25.30;96.50
15700;DHT22;7950;42.744;23.174;2023-06-26T10:25:58;25.40;99.90
15700;DHT22;7950;42.744;23.174;2023-06-26T10:28:31;25.50;99.10
15700;DHT22;7950;42.744;23.174;2023-06-26T10:31:04;25.70;99.70
15700;DHT22;7950;42.744;23.174;2023-06-26T10:33:36;25.80;96.10
15700;DHT22;7950;42.744;23.174;2023-06-26T10:36:13;25.70;96.40
15700;DHT22;7950;42.744;23.174;2023-06-26T10:38:49;25.70;97.80
15700;DHT22;7950;42.744;23.174;2023-06-26T10:41:24;25.60;99.20
15700;DHT22;7950;42.744;23.174;2023-06-26T10:44:07;25.70;96.20
15700;DHT22;7950;42.744;23.174;2023-06-26T10:46:50;25.70;94.40
15700;DHT22;7950;42.744;23.174;2023-06-26T10:49:20;25.80;95.30
15700;DHT22;7950;42.744;23.174;2023-06-26T10:51:52;25.80;97.20
15700;DHT22;7950;42.744;23.174;2023-06-26T10:54:23;25.60;94.50
15700;DHT22;7950;42.744;23.174;2023-06-26T10:56:58;25.50;95.80
15700;DHT22;7950;42.744;23.174;2023-06-26T10:59:29;25.40;96.80
15700;DHT22;7950;42.744;23.174;2023-06-26T11:01:59;25.30;94.30
15700;DHT22;7950;42.744;23.174;2023-06-26T11:04:39;25.20;94.80
15700;DHT22;7950;42.744;23.174;2023-06-26T11:07:15;25.40;96.10
15700;DHT22;7950;42.744;23.174;2023-06-26T11:10:00;25.50;99.60
15700;DHT22;7950;42.744;23.174;2023-06-26T11:12:37;25.60;95.90
15700;DHT22;7950;42.744;23.174;2023-06-26T11:15:10;25.80;96.10
15700;DHT22;7950;42.744;23.174;2023-06-26T11:17:41;25.90;96.80
15700;DHT22;7950;42.744;23.174;2023-06-26T11:20:12;25.90;93.10
15700;DHT22;7950;42.744;23.174;2023-06-26T11:22:43;25.80;94.20
15700;DHT22;7950;42.744;23.174;2023-06-26T11:25:11;25.80;92.20
15700;DHT22;7950;42.744;23.174;2023-06-26T11:27:42;25.60;95.20
15700;DHT22;7950;42.744;23.174;2023-06-26T11:30:22;25.80;96.60
15700;DHT22;7950;42.744;23.174;2023-06-26T11:32:52;25.90;99.40
15700;DHT22;7950;42.744;23.174;2023-06-26T11:35:24;26.00;96.40
15700;DHT22;7950;42.744;23.174;2023-06-26T11:37:58;26.20;94.90
15700;DHT22;7950;42.744;23.174;2023-06-26T11:40:33;26.50;95.90
15700;DHT22;7950;42.744;23.174;2023-06-26T11:43:04;26.70;92.70
15700;DHT22;7950;42.744;23.174;2023-06-26T11:45:34;27.00;92.60
15700;DHT22;7950;42.744;23.174;2023-06-26T11:48:03;27.20;93.70
15700;DHT22;7950;42.744;23.174;2023-06-26T11:50:32;27.20;92.40
15700;DHT22;7950;42.744;23.174;2023-06-26T11:53:05;27.20;91.10
15700;DHT22;7950;42.744;23.174;2023-06-26T11:55:41;27.10;87.20
15700;DHT22;7950;42.744;23.174;2023-06-26T11:58:13;26.80;87.60
15700;DHT22;7950;42.744;23.174;2023-06-26T12:00:41;26.40;87.30
15700;DHT22;7950;42.744;23.174;2023-06-26T12:03:10;26.10;90.40
15700;DHT22;7950;42.744;23.174;2023-06-26T12:05:40;25.90;92.50
15700;DHT22;7950;42.744;23.174;2023-06-26T12:08:12;25.80;93.40
15700;DHT22;7950;42.744;23.174;2023-06-26T12:10:41;25.60;92.70
15700;DHT22;7950;42.744;23.174;2023-06-26T12:13:09;25.60;94.80
15700;DHT22;7950;42.744;23.174;2023-06-26T12:15:39;25.50;95.00
15700;DHT22;7950;42.744;23.174;2023-06-26T12:18:09;25.40;95.70
15700;DHT22;7950;42.744;23.174;2023-06-26T12:20:40;25.30;95.60
15700;DHT22;7950;42.744;23.174;2023-06-26T12:23:12;25.20;96.10
15700;DHT22;7950;42.744;23.174;2023-06-26T12:25:41;25.20;98.00
15700;DHT22;7950;42.744;23.174;2023-06-26T12:28:16;25.30;97.70
15700;DHT22;7950;42.744;23.174;2023-06-26T12:31:14;25.40;97.60
15700;DHT22;7950;42.744;23.174;2023-06-26T12:33:43;25.50;94.20
15700;DHT22;7950;42.744;23.174;2023-06-26T12:36:12;25.50;94.20
15700;DHT22;7950;42.744;23.174;2023-06-26T12:38:41;25.50;94.70
15700;DHT22;7950;42.744;23.174;2023-06-26T12:41:12;25.50;96.80
15700;DHT22;7950;42.744;23.174;2023-06-26T12:43:42;25.50;97.50
15700;DHT22;7950;42.744;23.174;2023-06-26T12:46:11;25.50;99.70
15700;DHT22;7950;42.744;23.174;2023-06-26T12:48:42;25.60;97.80
15700;DHT22;7950;42.744;23.174;2023-06-26T12:51:15;25.60;98.40
15700;DHT22;7950;42.744;23.174;2023-06-26T12:53:44;25.60;99.20
15700;DHT22;7950;42.744;23.174;2023-06-26T12:56:13;25.60;99.90
15700;DHT22;7950;42.744;23.174;2023-06-26T12:58:43;25.70;99.90
15700;DHT22;7950;42.744;23.174;2023-06-26T13:01:12;25.80;98.80
15700;DHT22;7950;42.744;23.174;2023-06-26T13:03:43;25.90;97.70
15700;DHT22;7950;42.744;23.174;2023-06-26T13:06:12;25.90;96.70
15700;DHT22;7950;42.744;23.174;2023-06-26T13:08:41;26.10;94.90
15700;DHT22;7950;42.744;23.174;2023-06-26T13:11:10;26.30;96.10
15700;DHT22;7950;42.744;23.174;2023-06-26T13:13:38;26.40;96.30
15700;DHT22;7950;42.744;23.174;2023-06-26T13:16:07;26.50;93.80
15700;DHT22;7950;42.744;23.174;2023-06-26T13:18:35;26.60;91.30
15700;DHT22;7950;42.744;23.174;2023-06-26T13:21:05;26.60;89.20
15700;DHT22;7950;42.744;23.174;2023-06-26T13:23:34;26.40;87.90
15700;DHT22;7950;42.744;23.174;2023-06-26T13:26:02;26.10;88.50
15700;DHT22;7950;42.744;23.174;2023-06-26T13:28:31;25.70;90.20
15700;DHT22;7950;42.744;23.174;2023-06-26T13:31:00;25.50;92.60
15700;DHT22;7950;42.744;23.174;2023-06-26T13:33:28;25.30;92.80
15700;DHT22;7950;42.744;23.174;2023-06-26T13:35:57;25.20;93.20
15700;DHT22;7950;42.744;23.174;2023-06-26T13:38:27;25.10;95.30
15700;DHT22;7950;42.744;23.174;2023-06-26T13:40:56;24.90;97.00
15700;DHT22;7950;42.744;23.174;2023-06-26T13:43:27;24.80;96.50
15700;DHT22;7950;42.744;23.174;2023-06-26T13:45:57;24.60;96.90
15700;DHT22;7950;42.744;23.174;2023-06-26T13:48:26;24.50;97.60
15700;DHT22;7950;42.744;23.174;2023-06-26T13:50:55;24.50;97.10
15700;DHT22;7950;42.744;23.174;2023-06-26T13:53:24;24.50;98.70
15700;DHT22;7950;42.744;23.174;2023-06-26T13:55:54;24.50;99.90
15700;DHT22;7950;42.744;23.174;2023-06-26T13:58:23;24.80;97.40
15700;DHT22;7950;42.744;23.174;2023-06-26T14:00:53;25.10;98.00
15700;DHT22;7950;42.744;23.174;2023-06-26T14:03:22;25.20;97.50
15700;DHT22;7950;42.744;23.174;2023-06-26T14:05:51;25.30;96.70
15700;DHT22;7950;42.744;23.174;2023-06-26T14:08:19;25.60;98.00
15700;DHT22;7950;42.744;23.174;2023-06-26T14:10:48;25.80;96.50
15700;DHT22;7950;42.744;23.174;2023-06-26T14:13:18;26.10;97.00
15700;DHT22;7950;42.744;23.174;2023-06-26T14:15:50;26.30;94.70
15700;DHT22;7950;42.744;23.174;2023-06-26T14:18:20;26.40;93.90
15700;DHT22;7950;42.744;23.174;2023-06-26T14:20:51;26.60;93.70
15700;DHT22;7950;42.744;23.174;2023-06-26T14:23:20;26.80;93.90
15700;DHT22;7950;42.744;23.174;2023-06-26T14:25:49;26.80;92.60
15700;DHT22;7950;42.744;23.174;2023-06-26T14:28:19;26.80;90.30
15700;DHT22;7950;42.744;23.174;2023-06-26T14:30:47;26.80;91.60
15700;DHT22;7950;42.744;23.174;2023-06-26T14:33:16;26.80;88.50
15700;DHT22;7950;42.744;23.174;2023-06-26T14:35:44;26.70;88.80
15700;DHT22;7950;42.744;23.174;2023-06-26T14:38:13;26.40;89.00
15700;DHT22;7950;42.744;23.174;2023-06-26T14:40:41;26.10;88.90
15700;DHT22;7950;42.744;23.174;2023-06-26T14:43:10;25.90;91.30
15700;DHT22;7950;42.744;23.174;2023-06-26T14:45:42;25.60;93.30
15700;DHT22;7950;42.744;23.174;2023-06-26T14:48:10;25.40;93.80
15700;DHT22;7950;42.744;23.174;2023-06-26T14:50:39;25.10;95.40
15700;DHT22;7950;42.744;23.174;2023-06-26T14:53:08;24.90;94.70
15700;DHT22;7950;42.744;23.174;2023-06-26T14:55:37;24.90;95.70
15700;DHT22;7950;42.744;23.174;2023-06-26T14:58:05;24.80;95.30
15700;DHT22;7950;42.744;23.174;2023-06-26T15:00:34;24.70;96.20
15700;DHT22;7950;42.744;23.174;2023-06-26T15:03:04;24.70;97.60
15700;DHT22;7950;42.744;23.174;2023-06-26T15:05:33;24.70;98.90
15700;DHT22;7950;42.744;23.174;2023-06-26T15:08:01;24.60;99.90
15700;DHT22;7950;42.744;23.174;2023-06-26T15:10:30;24.50;99.90
15700;DHT22;7950;42.744;23.174;2023-06-26T15:13:00;24.50;99.90
15700;DHT22;7950;42.744;23.174;2023-06-26T15:15:28;24.50;99.90
15700;DHT22;7950;42.744;23.174;2023-06-26T15:17:57;24.40;99.90
15700;DHT22;7950;42.744;23.174;2023-06-26T15:20:27;24.40;99.90
15700;DHT22;7950;42.744;23.174;2023-06-26T15:22:55;24.30;99.90
15700;DHT22;7950;42.744;23.174;2023-06-26T15:25:25;24.30;99.90
15700;DHT22;7950;42.744;23.174;2023-06-26T15:27:55;24.30;99.90
15700;DHT22;7950;42.744;23.174;2023-06-26T15:30:23;24.20;99.90
15700;DHT22;7950;42.744;23.174;2023-06-26T15:32:52;24.20;99.90
15700;DHT22;7950;42.744;23.174;2023-06-26T15:35:21;24.20;99.90
15700;DHT22;7950;42.744;23.174;2023-06-26T15:37:50;24.30;99.90
15700;DHT22;7950;42.744;23.174;2023-06-26T15:40:19;24.30;99.90
15700;DHT22;7950;42.744;23.174;2023-06-26T15:42:49;24.40;99.90
15700;DHT22;7950;42.744;23.174;2023-06-26T15:45:19;24.50;99.90
15700;DHT22;7950;42.744;23.174;2023-06-26T15:47:49;24.70;99.90